Time;durP1;ratioP1;P1;durP2;ratioP2;P2;SDS_P1;SDS_P2;PMS_P1;PMS_P2;Temp;Humidity;BMP_temperature;BMP_pressure;BME280_temperature;BME280_humidity;BME280_pressure;Samples;Min_cycle;Max_cycle;Signal;HPM_P1;HPM_P2
2022/05/31 00:00:32;;;;;;;1.33;1.33;;;20.40;63.50;;;;;;5089679;28;44182;-69
2022/05/31 00:03:00;;;;;;;1.33;1.33;;;20.30;63.70;;;;;;5089697;28;43519;-69
2022/05/31 00:05:28;;;;;;;1.50;1.50;;;20.30;63.80;;;;;;5090141;27;43997;-70
2022/05/31 00:07:56;;;;;;;1.60;1.50;;;20.30;64.00;;;;;;5090455;27;43439;-69
2022/05/31 00:10:25;;;;;;;1.40;1.40;;;20.20;64.00;;;;;;5107096;27;43989;-69
2022/05/31 00:12:53;;;;;;;1.40;1.40;;;20.20;64.10;;;;;;5109859;27;43884;-69
2022/05/31 00:15:21;;;;;;;1.50;1.50;;;20.20;64.10;;;;;;5109908;27;44002;-70
2022/05/31 00:17:49;;;;;;;1.23;1.23;;;20.20;64.20;;;;;;5091203;27;44264;-69
2022/05/31 00:20:17;;;;;;;1.33;1.33;;;20.20;64.20;;;;;;5109684;27;43987;-70
2022/05/31 00:22:45;;;;;;;1.20;1.17;;;20.20;64.30;;;;;;5109911;27;43959;-69
2022/05/31 00:25:13;;;;;;;1.50;1.50;;;20.10;64.20;;;;;;5109843;27;43994;-69
2022/05/31 00:27:42;;;;;;;1.50;1.50;;;20.10;64.20;;;;;;5110057;27;43934;-70
2022/05/31 00:30:13;;;;;;;1.40;1.40;;;20.10;64.20;;;;;;5109315;27;43978;-70
2022/05/31 00:32:42;;;;;;;1.40;1.40;;;20.10;64.30;;;;;;5109678;27;44100;-70
2022/05/31 00:35:18;;;;;;;1.33;1.33;;;20.10;65.00;;;;;;5109545;27;43926;-70
2022/05/31 00:37:46;;;;;;;1.40;1.40;;;20.10;64.80;;;;;;5109440;27;43979;-70
2022/05/31 00:40:14;;;;;;;1.30;1.30;;;20.20;65.30;;;;;;5109454;27;44213;-69
2022/05/31 00:42:55;;;;;;;1.30;1.30;;;20.30;65.00;;;;;;5090834;27;44865;-69
2022/05/31 00:45:25;;;;;;;1.33;1.33;;;20.50;64.50;;;;;;5071100;27;43959;-70
2022/05/31 00:47:53;;;;;;;1.30;1.30;;;20.70;64.10;;;;;;5089549;27;43802;-69
2022/05/31 00:50:25;;;;;;;1.40;1.40;;;20.90;63.60;;;;;;5089358;27;43925;-69
2022/05/31 00:52:55;;;;;;;1.40;1.40;;;21.00;63.00;;;;;;5070808;27;44651;-69
2022/05/31 00:55:26;;;;;;;1.30;1.30;;;21.20;62.70;;;;;;5089407;27;43900;-70
2022/05/31 00:57:57;;;;;;;1.30;1.30;;;21.30;62.20;;;;;;5089671;27;43968;-70
2022/05/31 01:00:25;;;;;;;1.17;1.17;;;21.40;61.80;;;;;;5089399;27;43987;-69
2022/05/31 01:02:54;;;;;;;1.80;1.40;;;21.50;61.50;;;;;;5069366;27;44542;-70
2022/05/31 01:05:24;;;;;;;1.30;1.30;;;21.50;61.30;;;;;;5089326;27;43361;-69
2022/05/31 01:07:52;;;;;;;1.33;1.33;;;21.50;61.40;;;;;;5089653;27;44001;-69
2022/05/31 01:10:20;;;;;;;1.50;1.50;;;21.30;61.80;;;;;;5088847;27;45118;-69
2022/05/31 01:12:58;;;;;;;1.07;1.07;;;21.10;61.80;;;;;;5085945;27;43946;-70
2022/05/31 01:15:45;;;;;;;1.23;1.23;;;20.90;62.10;;;;;;5093090;27;43879;-69
2022/05/31 01:18:31;;;;;;;1.30;1.30;;;20.70;62.60;;;;;;5086494;27;44237;-71
2022/05/31 01:21:36;;;;;;;1.40;1.30;;;20.60;63.00;;;;;;4991528;28;43946;-70
2022/05/31 01:24:16;;;;;;;1.10;1.10;;;20.40;63.30;;;;;;5061514;27;44002;-70
2022/05/31 01:26:47;;;;;;;1.20;1.20;;;20.40;63.70;;;;;;5070693;27;43832;-69
2022/05/31 01:29:18;;;;;;;1.30;1.30;;;20.30;63.80;;;;;;5089560;27;44014;-70
2022/05/31 01:31:49;;;;;;;1.37;1.37;;;20.30;64.00;;;;;;5088896;27;43874;-70
2022/05/31 01:34:19;;;;;;;1.43;1.43;;;20.20;64.10;;;;;;5088747;27;43898;-69
2022/05/31 01:36:49;;;;;;;1.20;1.20;;;20.20;64.90;;;;;;5066804;28;43909;-69
2022/05/31 01:39:20;;;;;;;1.20;1.20;;;20.20;64.30;;;;;;5070380;28;43854;-69
2022/05/31 01:41:52;;;;;;;1.20;1.20;;;20.20;64.40;;;;;;5088691;27;43954;-69
2022/05/31 01:44:20;;;;;;;1.40;1.40;;;20.10;64.30;;;;;;5070002;28;44853;-69
2022/05/31 01:46:48;;;;;;;1.60;1.60;;;20.20;64.50;;;;;;5088682;27;44001;-69
2022/05/31 01:49:16;;;;;;;1.30;1.30;;;20.10;64.40;;;;;;5088616;27;43986;-69
2022/05/31 01:51:44;;;;;;;1.20;1.20;;;20.10;64.40;;;;;;5088692;27;43608;-70
2022/05/31 01:54:14;;;;;;;1.13;1.13;;;20.10;64.40;;;;;;5070381;28;44736;-71
2022/05/31 01:56:43;;;;;;;1.20;1.20;;;20.10;64.50;;;;;;5070146;28;43869;-69
2022/05/31 01:59:11;;;;;;;1.20;1.20;;;20.10;64.50;;;;;;5070499;28;43998;-69
2022/05/31 02:01:39;;;;;;;1.37;1.37;;;20.10;64.50;;;;;;5070071;28;44656;-70
2022/05/31 02:04:07;;;;;;;1.30;1.30;;;20.10;64.50;;;;;;5088105;27;43911;-70
2022/05/31 02:06:36;;;;;;;1.27;1.27;;;20.10;65.40;;;;;;5088455;27;44074;-69
2022/05/31 02:09:05;;;;;;;1.30;1.30;;;20.20;65.30;;;;;;5088314;27;43946;-69
2022/05/31 02:11:35;;;;;;;1.10;1.10;;;20.40;65.00;;;;;;5088064;27;44031;-69
2022/05/31 02:14:16;;;;;;;1.17;1.17;;;20.60;64.50;;;;;;5084145;27;43913;-69
2022/05/31 02:16:45;;;;;;;1.30;1.30;;;20.80;63.90;;;;;;5089142;27;43381;-70
2022/05/31 02:19:32;;;;;;;1.20;1.20;;;21.00;63.40;;;;;;5105143;27;43937;-69
2022/05/31 02:22:06;;;;;;;1.20;1.20;;;21.20;62.80;;;;;;5089105;27;44743;-70
2022/05/31 02:24:34;;;;;;;1.20;1.20;;;21.30;62.40;;;;;;5107307;27;43959;-69
2022/05/31 02:27:04;;;;;;;1.20;1.20;;;21.40;61.90;;;;;;5089113;27;43987;-69
2022/05/31 02:29:35;;;;;;;1.20;1.20;;;21.50;61.70;;;;;;5089245;27;43922;-69
2022/05/31 02:32:05;;;;;;;1.37;1.37;;;21.50;61.40;;;;;;5107284;27;43888;-70
2022/05/31 02:34:36;;;;;;;1.20;1.20;;;21.50;61.40;;;;;;5107480;27;44050;-69
2022/05/31 02:37:04;;;;;;;1.20;1.20;;;21.40;61.80;;;;;;5087589;27;43362;-69
2022/05/31 02:39:32;;;;;;;1.17;1.17;;;21.20;62.00;;;;;;5069673;27;44149;-70
2022/05/31 02:42:01;;;;;;;1.10;1.10;;;20.90;62.00;;;;;;5069060;27;44224;-70
2022/05/31 02:44:30;;;;;;;1.10;1.10;;;20.80;62.50;;;;;;5068976;27;46060;-70
2022/05/31 02:46:59;;;;;;;1.10;1.10;;;20.60;62.90;;;;;;5088720;27;43921;-70
2022/05/31 02:49:27;;;;;;;1.20;1.20;;;20.50;63.20;;;;;;5088509;27;43858;-70
2022/05/31 02:51:56;;;;;;;1.20;1.20;;;20.40;63.50;;;;;;5088645;27;44034;-70
2022/05/31 02:54:24;;;;;;;1.10;1.10;;;20.40;63.80;;;;;;5088510;27;43924;-70
2022/05/31 02:57:11;;;;;;;1.17;1.17;;;20.30;64.00;;;;;;5104699;27;43997;-70
2022/05/31 02:59:58;;;;;;;1.20;1.20;;;20.20;64.10;;;;;;5104218;27;43917;-71
2022/05/31 03:02:46;;;;;;;1.27;1.27;;;20.20;64.20;;;;;;5106549;27;43981;-71
2022/05/31 03:05:33;;;;;;;1.03;1.03;;;20.20;64.40;;;;;;5103654;27;43460;-70
2022/05/31 03:08:04;;;;;;;1.10;1.10;;;20.10;64.40;;;;;;5103598;27;44065;-70
2022/05/31 03:10:41;;;;;;;1.40;1.40;;;20.10;64.60;;;;;;5088724;27;44263;-70
2022/05/31 03:13:09;;;;;;;1.10;1.10;;;20.10;64.50;;;;;;5088193;27;45447;-69
2022/05/31 03:15:39;;;;;;;1.30;1.30;;;20.10;64.60;;;;;;5106931;27;43966;-69
2022/05/31 03:18:08;;;;;;;1.20;1.20;;;20.10;64.60;;;;;;5101791;27;43941;-69
2022/05/31 03:20:38;;;;;;;1.10;1.10;;;20.10;64.60;;;;;;5087221;28;44008;-69
2022/05/31 03:23:09;;;;;;;1.07;1.07;;;20.10;64.60;;;;;;5093697;27;43950;-69
2022/05/31 03:25:37;;;;;;;1.00;1.00;;;20.10;64.60;;;;;;5068635;27;45168;-70
2022/05/31 03:28:06;;;;;;;1.03;1.03;;;20.10;64.60;;;;;;5090528;27;43959;-70
2022/05/31 03:30:36;;;;;;;1.30;1.30;;;20.10;64.60;;;;;;5072599;27;43992;-70
2022/05/31 03:33:06;;;;;;;1.20;1.20;;;20.10;65.10;;;;;;5097607;27;43624;-71
2022/05/31 03:35:33;;;;;;;1.10;1.10;;;20.10;65.40;;;;;;5091502;27;45006;-70
2022/05/31 03:38:08;;;;;;;1.00;1.00;;;20.30;65.20;;;;;;5092168;27;43931;-69
2022/05/31 03:43:37;;;;;;;1.47;1.40;;;20.60;64.10;;;;;;5077133;28;45757;-70
2022/05/31 03:46:23;;;;;;;4.63;1.90;;;20.90;63.70;;;;;;5087302;27;44042;-69
2022/05/31 03:48:59;;;;;;;2.37;2.00;;;21.00;63.00;;;;;;5089912;27;43341;-69
2022/05/31 03:51:37;;;;;;;5.07;2.70;;;21.20;62.60;;;;;;5090675;27;43997;-69
2022/05/31 03:54:15;;;;;;;5.63;2.60;;;21.30;62.10;;;;;;5091637;27;44802;-69
2022/05/31 03:57:17;;;;;;;5.30;2.87;;;21.50;61.70;;;;;;5054287;27;43899;-70
2022/05/31 04:00:08;;;;;;;6.50;3.20;;;21.40;61.50;;;;;;5091701;27;43870;-69
2022/05/31 04:02:55;;;;;;;6.80;3.70;;;21.40;61.80;;;;;;5072050;27;44076;-69
2022/05/31 04:05:25;;;;;;;5.20;3.07;;;21.10;62.10;;;;;;5081498;27;46089;-69
2022/05/31 04:07:53;;;;;;;5.83;3.37;;;20.90;62.20;;;;;;5091318;27;45858;-70
2022/05/31 04:10:21;;;;;;;6.70;3.40;;;20.70;62.50;;;;;;5091229;27;44053;-69
2022/05/31 04:12:49;;;;;;;8.50;3.33;;;20.60;63.00;;;;;;5091844;27;43791;-70
2022/05/31 04:15:17;;;;;;;5.53;3.23;;;20.50;63.30;;;;;;5106415;27;43859;-69
2022/05/31 04:17:48;;;;;;;7.27;3.37;;;20.40;63.40;;;;;;5071896;28;44597;-69
2022/05/31 04:20:17;;;;;;;5.53;3.40;;;20.30;63.50;;;;;;5073176;28;43384;-70
2022/05/31 04:22:46;;;;;;;7.70;3.80;;;20.20;63.50;;;;;;5108113;27;44203;-70
2022/05/31 04:25:32;;;;;;;6.80;3.57;;;20.20;63.60;;;;;;5106683;27;44021;-69
2022/05/31 04:28:29;;;;;;;5.70;3.67;;;20.20;63.70;;;;;;5089617;27;43949;-70
2022/05/31 04:31:29;;;;;;;6.33;3.60;;;20.10;63.70;;;;;;5097485;27;43413;-69
2022/05/31 04:34:29;;;;;;;5.43;3.57;;;20.10;63.70;;;;;;5094379;27;43761;-70
2022/05/31 04:36:58;;;;;;;6.53;3.47;;;20.10;63.70;;;;;;5090382;27;46625;-69
2022/05/31 04:39:43;;;;;;;3.80;3.27;;;20.00;63.70;;;;;;5090942;27;43857;-69
2022/05/31 04:42:22;;;;;;;5.77;3.90;;;20.00;63.70;;;;;;5090818;27;43979;-70
2022/05/31 04:44:52;;;;;;;5.40;3.77;;;20.00;63.70;;;;;;5091197;27;43522;-70
2022/05/31 04:47:20;;;;;;;3.77;3.27;;;20.00;63.70;;;;;;5089990;27;44108;-70
2022/05/31 04:49:51;;;;;;;5.87;3.77;;;20.00;63.70;;;;;;5073178;28;45055;-69
2022/05/31 04:52:19;;;;;;;4.57;3.33;;;20.00;63.70;;;;;;5070849;28;43961;-70
2022/05/31 04:54:54;;;;;;;5.20;3.43;;;20.00;64.00;;;;;;5076092;27;44107;-70
2022/05/31 04:57:28;;;;;;;4.30;3.13;;;20.10;64.10;;;;;;5090578;27;44024;-70
2022/05/31 04:59:56;;;;;;;4.33;3.50;;;20.20;63.80;;;;;;5078139;28;44644;-69
2022/05/31 05:02:28;;;;;;;4.13;3.50;;;20.40;63.30;;;;;;5071138;28;43775;-70
2022/05/31 05:05:09;;;;;;;4.37;3.40;;;20.60;62.70;;;;;;5071372;27;43914;-70
2022/05/31 05:07:49;;;;;;;5.77;3.67;;;20.80;62.10;;;;;;5071037;27;46946;-69
2022/05/31 05:10:19;;;;;;;5.47;3.20;;;21.00;61.40;;;;;;5070624;27;44034;-69
2022/05/31 05:12:57;;;;;;;3.60;3.30;;;21.10;60.80;;;;;;5071136;28;44255;-70
2022/05/31 05:15:44;;;;;;;4.87;3.40;;;21.30;60.50;;;;;;5087095;27;44004;-70
2022/05/31 05:18:13;;;;;;;5.10;3.00;;;21.40;60.10;;;;;;5078007;27;45668;-70
2022/05/31 05:20:44;;;;;;;4.23;3.53;;;21.50;59.70;;;;;;5090246;27;44978;-69
2022/05/31 05:23:12;;;;;;;3.37;3.10;;;21.50;59.40;;;;;;5090244;27;44061;-69
2022/05/31 05:25:49;;;;;;;4.20;3.20;;;21.50;59.30;;;;;;5082965;27;44024;-69
2022/05/31 05:31:27;;;;;;;2.83;2.63;;;21.20;59.90;;;;;;5088362;27;43969;-70
2022/05/31 05:34:13;;;;;;;3.07;2.77;;;21.00;60.30;;;;;;5086381;27;44034;-70
2022/05/31 05:36:51;;;;;;;3.00;2.80;;;20.80;60.70;;;;;;5070463;28;44106;-69
2022/05/31 05:39:19;;;;;;;2.90;2.70;;;20.60;61.10;;;;;;5070208;28;44860;-70
2022/05/31 05:42:07;;;;;;;2.60;2.40;;;20.50;61.50;;;;;;5086837;27;44011;-70
2022/05/31 05:45:08;;;;;;;3.23;2.93;;;20.40;61.70;;;;;;5108048;27;43990;-70
2022/05/31 05:47:36;;;;;;;3.90;2.80;;;20.30;62.00;;;;;;5090509;27;44153;-69
2022/05/31 05:50:04;;;;;;;3.50;3.20;;;20.20;62.00;;;;;;5088974;27;45994;-68
2022/05/31 05:52:51;;;;;;;3.57;2.70;;;20.20;62.20;;;;;;5091487;27;43430;-70
2022/05/31 05:55:38;;;;;;;3.20;2.97;;;20.20;62.30;;;;;;5101207;27;43280;-70
2022/05/31 05:58:28;;;;;;;3.03;2.80;;;20.10;62.40;;;;;;5088606;27;43998;-70
2022/05/31 06:01:15;;;;;;;2.90;2.60;;;20.10;62.40;;;;;;5085765;27;43855;-70
2022/05/31 06:03:53;;;;;;;3.27;2.93;;;20.10;62.40;;;;;;5070100;28;43332;-69
2022/05/31 06:06:22;;;;;;;2.70;2.50;;;20.10;62.50;;;;;;5070091;28;44063;-69
2022/05/31 06:08:51;;;;;;;2.63;2.47;;;20.10;62.50;;;;;;5089048;27;43947;-70
2022/05/31 06:11:20;;;;;;;2.30;2.20;;;20.10;62.50;;;;;;5074281;27;46510;-70
2022/05/31 06:13:51;;;;;;;2.80;2.60;;;20.00;62.40;;;;;;5082624;27;45946;-69
2022/05/31 06:16:20;;;;;;;2.73;2.27;;;20.00;62.40;;;;;;5089472;27;44020;-70
2022/05/31 06:18:50;;;;;;;2.40;2.30;;;20.00;62.40;;;;;;5089746;27;44035;-70
2022/05/31 06:21:18;;;;;;;2.33;2.23;;;20.00;62.40;;;;;;5107658;27;44792;-70
2022/05/31 06:23:49;;;;;;;3.17;2.87;;;20.00;62.40;;;;;;5069774;28;43960;-69
2022/05/31 06:26:17;;;;;;;2.93;2.73;;;20.00;62.40;;;;;;5101233;27;43954;-69
2022/05/31 06:28:57;;;;;;;2.77;2.57;;;20.00;62.60;;;;;;5086872;27;43988;-70
2022/05/31 06:31:25;;;;;;;2.13;2.03;;;20.10;63.00;;;;;;5069442;27;46095;-70
2022/05/31 06:33:53;;;;;;;2.67;2.50;;;20.20;62.90;;;;;;5088028;27;43922;-69
2022/05/31 06:36:26;;;;;;;3.00;2.67;;;20.40;62.40;;;;;;5069196;27;43947;-70
2022/05/31 06:38:54;;;;;;;2.50;2.40;;;20.60;61.80;;;;;;5097005;27;43429;-70
2022/05/31 06:41:22;;;;;;;2.47;2.37;;;20.80;61.20;;;;;;5107378;27;43939;-70
2022/05/31 06:44:23;;;;;;;2.50;2.30;;;21.00;60.50;;;;;;5106733;27;44294;-70
2022/05/31 06:47:20;;;;;;;2.07;2.07;;;21.20;60.00;;;;;;5087283;27;43957;-69
2022/05/31 06:50:09;;;;;;;2.40;2.30;;;21.30;59.60;;;;;;5087691;27;44007;-70
2022/05/31 06:59:13;;;;;;;2.80;2.60;;;21.30;59.40;;;;;;5107110;27;44038;-70
2022/05/31 07:01:45;;;;;;;2.10;2.00;;;21.00;59.80;;;;;;5069588;27;43891;-69
2022/05/31 07:04:13;;;;;;;2.40;2.30;;;20.80;60.00;;;;;;5069285;27;43909;-68
2022/05/31 07:06:41;;;;;;;2.37;2.27;;;20.60;60.40;;;;;;5069197;27;43984;-69
2022/05/31 07:09:34;;;;;;;2.10;2.00;;;20.50;61.60;;;;;;5087321;27;43880;-69
2022/05/31 07:12:16;;;;;;;2.47;2.30;;;20.40;61.10;;;;;;5075556;27;44050;-70
2022/05/31 07:15:24;;;;;;;2.10;2.00;;;20.30;62.20;;;;;;5043730;28;44147;-69
2022/05/31 07:18:14;;;;;;;2.43;2.33;;;20.20;61.70;;;;;;5043716;28;44204;-70
2022/05/31 07:20:44;;;;;;;2.60;2.50;;;20.20;61.90;;;;;;5073862;27;43938;-69
2022/05/31 07:23:12;;;;;;;2.20;2.10;;;20.10;62.00;;;;;;5089260;27;44054;-70
2022/05/31 07:25:49;;;;;;;2.07;1.97;;;20.10;62.20;;;;;;5091195;27;44007;-70
2022/05/31 07:28:18;;;;;;;2.27;2.17;;;20.10;62.20;;;;;;5068394;27;44129;-70
2022/05/31 07:30:46;;;;;;;2.43;2.23;;;20.00;62.20;;;;;;5087419;27;43348;-69
2022/05/31 07:33:23;;;;;;;2.17;2.00;;;20.00;62.30;;;;;;5069294;28;43795;-69
2022/05/31 07:36:09;;;;;;;2.07;1.97;;;20.00;62.30;;;;;;5081785;28;45467;-70
2022/05/31 07:38:54;;;;;;;2.07;1.97;;;20.00;62.40;;;;;;5075590;27;43994;-70
2022/05/31 07:41:22;;;;;;;2.17;2.07;;;20.00;62.40;;;;;;5087277;27;43999;-70
2022/05/31 07:43:50;;;;;;;1.97;1.87;;;20.00;62.40;;;;;;5068786;27;43935;-70
2022/05/31 07:46:19;;;;;;;1.90;1.90;;;20.00;62.40;;;;;;5077282;27;43951;-69
2022/05/31 07:48:50;;;;;;;2.27;2.17;;;20.00;62.40;;;;;;5088180;27;44408;-69
2022/05/31 07:51:36;;;;;;;2.10;2.00;;;20.00;62.50;;;;;;5103862;27;44232;-69
2022/05/31 07:54:30;;;;;;;2.07;1.97;;;20.00;62.70;;;;;;5106397;27;43977;-70
2022/05/31 08:00:29;;;;;;;1.93;1.90;;;20.20;63.00;;;;;;5087063;27;43994;-70
2022/05/31 08:03:00;;;;;;;2.47;1.83;;;20.40;62.30;;;;;;5072548;27;44001;-69
2022/05/31 08:05:32;;;;;;;2.10;2.00;;;20.60;61.70;;;;;;5070284;28;44171;-69
2022/05/31 08:08:00;;;;;;;2.17;2.07;;;20.80;61.10;;;;;;5086604;27;44013;-69
2022/05/31 08:10:48;;;;;;;2.03;1.93;;;21.00;60.50;;;;;;5086616;27;43432;-69
2022/05/31 08:13:16;;;;;;;2.03;1.93;;;21.10;60.10;;;;;;5070663;27;43778;-70
2022/05/31 08:15:47;;;;;;;2.20;2.10;;;21.30;59.80;;;;;;5091612;27;43869;-70
2022/05/31 08:18:15;;;;;;;2.00;2.00;;;21.40;59.40;;;;;;5109759;27;43967;-69
2022/05/31 08:20:44;;;;;;;1.67;1.60;;;21.40;59.10;;;;;;5109968;27;43987;-69
2022/05/31 08:23:12;;;;;;;2.00;1.90;;;21.50;59.10;;;;;;5110241;27;43388;-70
2022/05/31 08:25:40;;;;;;;2.00;1.90;;;21.40;59.30;;;;;;5091647;27;43931;-70
2022/05/31 08:28:08;;;;;;;2.10;2.00;;;21.20;59.60;;;;;;5101645;27;43939;-69
2022/05/31 08:30:36;;;;;;;1.53;1.53;;;21.00;59.80;;;;;;5086389;27;45355;-69
2022/05/31 08:33:05;;;;;;;2.03;1.93;;;20.80;60.10;;;;;;5109693;27;44045;-70
2022/05/31 08:35:33;;;;;;;1.87;1.83;;;20.60;60.60;;;;;;5110000;27;43807;-69
2022/05/31 08:38:23;;;;;;;2.23;2.13;;;20.50;61.80;;;;;;5109636;27;44141;-69
2022/05/31 08:41:04;;;;;;;1.80;1.70;;;20.30;61.40;;;;;;5109693;27;43552;-70
2022/05/31 08:43:46;;;;;;;1.73;1.73;;;20.30;61.70;;;;;;5090047;27;43974;-68
2022/05/31 08:46:17;;;;;;;1.90;1.80;;;20.20;62.00;;;;;;5092230;27;43362;-70
2022/05/31 08:48:48;;;;;;;2.07;1.97;;;20.10;62.10;;;;;;5109317;27;44153;-70
2022/05/31 08:56:57;;;;;;;1.73;1.73;;;20.00;62.50;;;;;;5090946;27;43887;-69
2022/05/31 08:59:32;;;;;;;1.80;1.70;;;20.00;62.70;;;;;;5090780;27;44051;-71
2022/05/31 09:02:16;;;;;;;1.87;1.73;;;20.00;62.80;;;;;;5099054;27;44000;-69
2022/05/31 09:05:03;;;;;;;1.90;1.90;;;20.00;62.70;;;;;;5089891;27;43330;-69
2022/05/31 09:07:33;;;;;;;1.90;1.90;;;20.00;62.90;;;;;;5071418;27;44033;-70
2022/05/31 09:10:06;;;;;;;2.07;1.97;;;19.90;62.70;;;;;;5089566;27;44026;-69
2022/05/31 09:12:38;;;;;;;1.90;1.80;;;19.90;62.80;;;;;;5089330;27;43956;-70
2022/05/31 09:15:09;;;;;;;1.93;1.83;;;19.90;62.80;;;;;;5105707;27;43989;-70
2022/05/31 09:17:42;;;;;;;1.73;1.70;;;20.00;63.00;;;;;;5109476;27;44060;-69
2022/05/31 09:20:12;;;;;;;1.70;1.70;;;19.90;62.80;;;;;;5108991;27;45153;-70
2022/05/31 09:22:41;;;;;;;1.60;1.60;;;19.90;62.80;;;;;;5090291;27;43963;-70
2022/05/31 09:25:10;;;;;;;1.87;1.87;;;19.90;62.80;;;;;;5103556;27;43353;-70
2022/05/31 09:27:41;;;;;;;2.30;2.20;;;19.90;63.20;;;;;;5089654;27;43396;-70
2022/05/31 09:30:11;;;;;;;2.10;2.10;;;20.00;63.40;;;;;;5089149;27;44000;-70
2022/05/31 09:32:45;;;;;;;1.80;1.80;;;20.20;63.20;;;;;;5088808;27;43978;-68
2022/05/31 09:35:42;;;;;;;1.77;1.67;;;20.40;62.70;;;;;;5089151;27;44016;-70
2022/05/31 09:38:23;;;;;;;1.87;1.87;;;20.60;62.00;;;;;;5068213;28;44054;-69
2022/05/31 09:40:53;;;;;;;1.83;1.73;;;20.80;61.40;;;;;;5088069;28;43999;-69
2022/05/31 09:43:26;;;;;;;1.73;1.63;;;20.90;60.70;;;;;;5088043;28;43519;-69
2022/05/31 09:45:56;;;;;;;1.97;1.80;;;21.10;60.30;;;;;;5082137;28;43983;-69
2022/05/31 09:48:27;;;;;;;1.83;1.80;;;21.20;60.00;;;;;;5088320;28;43810;-70
2022/05/31 09:50:58;;;;;;;1.73;1.73;;;21.30;59.70;;;;;;5067987;28;44003;-70
2022/05/31 10:00:15;;;;;;;1.70;1.70;;;21.00;60.50;;;;;;5006081;28;43938;-70
2022/05/31 10:03:00;;;;;;;1.60;1.60;;;20.70;60.40;;;;;;5002824;28;43601;-70
2022/05/31 10:05:29;;;;;;;1.93;1.77;;;20.60;60.90;;;;;;5047012;28;45043;-70
2022/05/31 10:07:57;;;;;;;1.80;1.70;;;20.40;61.30;;;;;;5067782;28;44087;-69
2022/05/31 10:10:27;;;;;;;1.60;1.60;;;20.30;61.70;;;;;;5073010;28;44007;-69
2022/05/31 10:12:57;;;;;;;1.77;1.67;;;20.20;61.90;;;;;;5087597;28;43912;-70
2022/05/31 10:15:55;;;;;;;1.90;1.80;;;20.10;62.10;;;;;;5075305;28;43985;-70
2022/05/31 10:18:29;;;;;;;1.70;1.50;;;20.10;62.30;;;;;;5068153;28;44067;-69
2022/05/31 10:20:58;;;;;;;1.80;1.80;;;20.00;62.40;;;;;;5068768;28;43961;-69
2022/05/31 10:23:31;;;;;;;1.50;1.50;;;20.00;62.60;;;;;;5071386;28;43972;-69
2022/05/31 10:26:23;;;;;;;1.90;1.80;;;20.00;62.70;;;;;;5084435;28;43461;-70
2022/05/31 10:29:18;;;;;;;1.80;1.70;;;20.00;62.70;;;;;;5078582;28;43475;-70
2022/05/31 10:32:25;;;;;;;2.93;1.80;;;19.90;62.70;;;;;;5055773;28;44059;-69
2022/05/31 10:35:07;;;;;;;1.60;1.60;;;19.90;62.70;;;;;;5087023;28;43954;-69
2022/05/31 10:37:35;;;;;;;1.83;1.73;;;19.90;62.80;;;;;;5105726;27;43861;-69
2022/05/31 10:40:04;;;;;;;1.80;1.80;;;19.90;62.80;;;;;;5101217;27;44063;-70
2022/05/31 10:42:33;;;;;;;2.00;1.90;;;19.90;62.80;;;;;;5102269;27;43411;-70
2022/05/31 10:45:04;;;;;;;1.90;1.77;;;19.90;62.80;;;;;;5087670;27;45089;-69
2022/05/31 10:47:32;;;;;;;1.87;1.77;;;19.90;62.90;;;;;;5087625;27;43782;-70
2022/05/31 10:50:00;;;;;;;1.70;1.57;;;19.90;62.90;;;;;;5088140;27;43930;-69
2022/05/31 10:52:31;;;;;;;1.60;1.50;;;19.90;63.20;;;;;;5088246;27;44010;-70
2022/05/31 10:55:20;;;;;;;1.70;1.50;;;20.00;63.50;;;;;;5082158;27;44035;-69
2022/05/31 10:57:54;;;;;;;1.90;1.80;;;20.20;63.20;;;;;;5107526;27;43317;-69
2022/05/31 11:00:28;;;;;;;1.30;1.30;;;20.40;62.70;;;;;;5107689;27;43288;-69
2022/05/31 11:03:04;;;;;;;1.60;1.60;;;20.60;62.10;;;;;;5107687;27;44044;-70
2022/05/31 11:05:38;;;;;;;1.70;1.60;;;20.70;61.40;;;;;;5088462;27;44968;-69
2022/05/31 11:13:55;;;;;;;1.50;1.50;;;21.10;60.10;;;;;;5107391;27;43949;-70
2022/05/31 11:16:29;;;;;;;1.80;1.70;;;21.20;59.80;;;;;;5087472;27;43903;-70
2022/05/31 11:19:04;;;;;;;1.57;1.57;;;21.30;59.50;;;;;;5087061;28;43299;-70
2022/05/31 11:21:42;;;;;;;1.60;1.60;;;21.30;59.50;;;;;;5087392;28;44028;-69
2022/05/31 11:24:29;;;;;;;1.50;1.50;;;21.10;59.80;;;;;;5069249;28;43598;-70
2022/05/31 11:27:05;;;;;;;1.70;1.60;;;20.90;60.00;;;;;;5086829;28;43757;-69
2022/05/31 11:29:42;;;;;;;1.63;1.40;;;20.70;60.30;;;;;;5087326;27;44024;-69
2022/05/31 11:32:14;;;;;;;1.50;1.50;;;20.50;60.80;;;;;;5087184;27;43912;-70
2022/05/31 11:34:52;;;;;;;1.70;1.60;;;20.40;61.20;;;;;;5088091;27;43927;-70
2022/05/31 11:37:28;;;;;;;1.60;1.60;;;20.30;61.60;;;;;;5086927;27;44990;-69
2022/05/31 11:40:03;;;;;;;1.33;1.33;;;20.20;61.90;;;;;;5087319;27;43352;-69
2022/05/31 11:42:41;;;;;;;1.80;1.70;;;20.10;62.00;;;;;;5087302;27;43389;-69
2022/05/31 11:45:14;;;;;;;1.67;1.57;;;20.10;62.20;;;;;;5087577;27;44083;-69
2022/05/31 11:47:52;;;;;;;1.37;1.37;;;20.00;62.30;;;;;;5087897;27;44226;-69
2022/05/31 11:50:24;;;;;;;1.47;1.47;;;20.00;62.50;;;;;;5090056;28;44113;-70
2022/05/31 11:53:11;;;;;;;1.40;1.40;;;20.00;62.60;;;;;;5089765;28;43941;-69
2022/05/31 11:55:41;;;;;;;1.40;1.40;;;20.00;63.50;;;;;;5090831;28;44022;-70
2022/05/31 11:58:27;;;;;;;1.80;1.70;;;19.90;62.60;;;;;;5090055;28;43954;-69
2022/05/31 12:01:02;;;;;;;1.73;1.63;;;19.90;62.50;;;;;;5091006;27;43407;-69
2022/05/31 12:03:40;;;;;;;1.50;1.40;;;19.90;62.50;;;;;;5092914;27;43511;-69
2022/05/31 12:06:13;;;;;;;1.50;1.40;;;19.90;62.50;;;;;;5094027;27;43309;-69
2022/05/31 12:08:45;;;;;;;1.80;1.40;;;19.90;62.50;;;;;;5090419;27;43888;-69
2022/05/31 12:11:16;;;;;;;1.50;1.50;;;19.90;62.60;;;;;;5090576;27;44132;-70
2022/05/31 12:13:45;;;;;;;1.90;1.80;;;19.90;62.50;;;;;;5089755;27;44048;-69
2022/05/31 12:16:13;;;;;;;1.57;1.57;;;19.90;62.60;;;;;;5091139;27;43943;-70
2022/05/31 12:18:49;;;;;;;1.40;1.40;;;19.90;62.50;;;;;;5102206;27;44875;-69
2022/05/31 12:21:20;;;;;;;1.67;1.67;;;19.90;62.50;;;;;;5090195;28;44343;-69
2022/05/31 12:23:51;;;;;;;1.50;1.50;;;19.90;62.90;;;;;;5089735;28;44024;-70
2022/05/31 12:26:22;;;;;;;1.63;1.53;;;20.10;63.00;;;;;;5090135;28;43505;-69
2022/05/31 12:28:51;;;;;;;1.70;1.60;;;20.20;62.80;;;;;;5089505;28;43921;-70
2022/05/31 12:31:21;;;;;;;1.93;1.53;;;20.40;62.30;;;;;;5089708;27;43958;-69
2022/05/31 12:33:52;;;;;;;1.60;1.50;;;20.50;60.40;;;;;;5089946;27;44319;-71
2022/05/31 12:36:20;;;;;;;1.60;1.50;;;20.70;60.60;;;;;;5098743;27;44037;-70
2022/05/31 12:39:01;;;;;;;1.73;1.73;;;20.90;60.60;;;;;;5109553;27;43938;-70
2022/05/31 12:41:37;;;;;;;1.57;1.47;;;21.00;60.30;;;;;;5109668;27;43933;-69
2022/05/31 12:44:09;;;;;;;1.57;1.40;;;21.10;60.00;;;;;;5109734;27;44001;-70
2022/05/31 12:46:38;;;;;;;1.70;1.60;;;21.20;59.50;;;;;;5109221;27;43990;-69
2022/05/31 12:49:10;;;;;;;1.40;1.40;;;21.20;59.60;;;;;;5108688;27;44021;-70
2022/05/31 12:51:38;;;;;;;1.57;1.57;;;21.00;59.70;;;;;;5109381;27;43965;-70
2022/05/31 12:54:12;;;;;;;1.97;1.87;;;20.90;59.80;;;;;;5108454;27;43998;-70
2022/05/31 12:57:04;;;;;;;1.40;1.40;;;20.70;60.10;;;;;;5109784;27;43906;-69
2022/05/31 12:59:54;;;;;;;1.63;1.63;;;20.50;60.60;;;;;;5109154;27;43950;-70
2022/05/31 13:02:31;;;;;;;1.60;1.60;;;20.40;61.10;;;;;;5083982;27;45160;-69
2022/05/31 13:05:06;;;;;;;2.00;1.80;;;20.30;61.50;;;;;;5078066;27;43923;-69
2022/05/31 13:07:41;;;;;;;1.53;1.53;;;20.20;61.70;;;;;;5092075;27;44013;-69
2022/05/31 13:10:30;;;;;;;1.60;1.60;;;20.10;61.90;;;;;;5106198;27;44025;-69
2022/05/31 13:21:18;;;;;;;1.90;1.80;;;20.00;62.50;;;;;;5089226;28;43999;-70
2022/05/31 13:24:08;;;;;;;2.20;2.00;;;20.00;62.70;;;;;;5098283;27;43377;-69
2022/05/31 13:26:36;;;;;;;1.70;1.70;;;20.00;62.70;;;;;;5108964;27;44011;-69
2022/05/31 13:29:07;;;;;;;2.00;1.90;;;19.90;62.60;;;;;;5108379;27;44206;-70
2022/05/31 13:31:45;;;;;;;1.93;1.83;;;19.90;62.70;;;;;;5073569;28;45770;-69
2022/05/31 13:34:28;;;;;;;1.90;1.80;;;19.90;62.70;;;;;;5089169;27;44011;-70
2022/05/31 13:36:57;;;;;;;1.63;1.63;;;19.90;62.80;;;;;;5088484;28;43757;-69
2022/05/31 13:39:32;;;;;;;1.67;1.67;;;19.90;62.90;;;;;;5089100;28;43932;-69
2022/05/31 13:42:01;;;;;;;1.80;1.70;;;19.90;63.50;;;;;;5088464;28;44030;-69
2022/05/31 13:44:31;;;;;;;1.80;1.63;;;20.10;63.70;;;;;;5087672;28;43980;-70
2022/05/31 13:47:00;;;;;;;5.33;2.00;;;20.20;63.30;;;;;;5087842;28;43909;-69
2022/05/31 13:49:31;;;;;;;4.67;2.10;;;20.40;62.90;;;;;;5089023;28;43792;-69
2022/05/31 13:52:01;;;;;;;1.80;1.70;;;20.50;62.40;;;;;;5088218;28;44025;-68
2022/05/31 13:54:30;;;;;;;1.83;1.60;;;20.70;61.80;;;;;;5088282;28;43341;-70
2022/05/31 13:57:01;;;;;;;2.23;1.90;;;20.80;61.50;;;;;;5088652;28;44099;-69
2022/05/31 13:59:33;;;;;;;3.23;1.87;;;21.00;61.00;;;;;;5088702;28;43997;-70
2022/05/31 14:02:01;;;;;;;2.00;1.90;;;21.10;60.30;;;;;;5105049;27;44039;-71
2022/05/31 14:04:31;;;;;;;2.17;1.87;;;21.20;59.90;;;;;;5097621;27;43347;-70
2022/05/31 14:07:01;;;;;;;1.97;1.80;;;21.30;59.70;;;;;;5088830;27;43952;-69